Time;durP1;ratioP1;P1;durP2;ratioP2;P2;SDS_P1;SDS_P2;PMS_P1;PMS_P2;Temp;Humidity;BMP_temperature;BMP_pressure;BME280_temperature;BME280_humidity;BME280_pressure;Samples;Min_cycle;Max_cycle;Signal;HPM_P1;HPM_P2
2023/06/01 00:01:03;;;;;;;9.07;6.53;;;;;;;;;;5075671;28;20942;-77
2023/06/01 00:03:31;;;;;;;9.17;6.17;;;;;;;;;;5075893;28;20455;-77
2023/06/01 00:05:58;;;;;;;12.67;6.43;;;;;;;;;;5075460;28;20866;-77
2023/06/01 00:08:25;;;;;;;8.30;6.53;;;;;;;;;;5075137;28;20821;-77
2023/06/01 00:10:53;;;;;;;8.73;6.00;;;;;;;;;;5075355;28;20458;-77
2023/06/01 00:13:20;;;;;;;7.43;5.90;;;;;;;;;;5075347;28;20972;-77
2023/06/01 00:15:47;;;;;;;9.67;7.13;;;;;;;;;;5075362;28;20930;-77
2023/06/01 00:18:17;;;;;;;13.37;6.87;;;;;;;;;;5075151;28;20456;-77
2023/06/01 00:20:44;;;;;;;12.80;6.53;;;;;;;;;;5075147;28;20494;-77
2023/06/01 00:23:11;;;;;;;7.67;6.27;;;;;;;;;;5075279;28;20938;-77
2023/06/01 00:25:38;;;;;;;10.40;6.00;;;;;;;;;;5074872;28;20447;-77
2023/06/01 00:28:05;;;;;;;10.17;6.10;;;;;;;;;;5074944;28;20460;-77
2023/06/01 00:30:33;;;;;;;8.77;6.73;;;;;;;;;;5074823;28;20471;-77
2023/06/01 00:33:00;;;;;;;7.13;5.97;;;;;;;;;;5075300;28;20783;-77
2023/06/01 00:35:28;;;;;;;11.33;6.47;;;;;;;;;;5075007;28;20447;-77
2023/06/01 00:37:56;;;;;;;13.80;5.50;;;;;;;;;;5074828;28;20495;-77
2023/06/01 00:40:24;;;;;;;14.50;6.50;;;;;;;;;;5074598;28;20468;-77
2023/06/01 00:42:51;;;;;;;12.40;6.70;;;;;;;;;;5075062;28;20451;-77
2023/06/01 00:45:18;;;;;;;10.43;6.57;;;;;;;;;;5074806;28;20828;-77
2023/06/01 00:47:45;;;;;;;11.70;7.33;;;;;;;;;;5074718;28;20931;-77
2023/06/01 00:50:13;;;;;;;17.80;7.90;;;;;;;;;;5074302;28;20472;-77
2023/06/01 00:52:41;;;;;;;10.93;6.80;;;;;;;;;;5074666;28;20458;-77
2023/06/01 00:55:10;;;;;;;18.83;11.30;;;;;;;;;;5074627;28;20831;-77
2023/06/01 00:57:38;;;;;;;11.13;8.00;;;;;;;;;;5074443;28;20498;-77
2023/06/01 01:00:09;;;;;;;7.67;6.03;;;;;;;;;;5074366;28;20483;-77
2023/06/01 01:02:37;;;;;;;10.47;6.67;;;;;;;;;;5074074;28;20452;-77
2023/06/01 01:05:09;;;;;;;10.70;7.27;;;;;;;;;;5074251;28;20467;-77
2023/06/01 01:07:40;;;;;;;8.63;6.67;;;;;;;;;;5074295;28;20459;-77
2023/06/01 01:10:20;;;;;;;8.57;7.10;;;;;;;;;;5074044;28;20843;-77
2023/06/01 01:12:50;;;;;;;9.73;6.60;;;;;;;;;;5074263;28;20455;-77
2023/06/01 01:15:20;;;;;;;8.83;6.67;;;;;;;;;;5074188;28;20459;-77
2023/06/01 01:17:51;;;;;;;12.13;6.33;;;;;;;;;;5073986;28;20487;-77
2023/06/01 01:20:21;;;;;;;9.00;6.50;;;;;;;;;;5073762;28;20844;-77
2023/06/01 01:22:56;;;;;;;14.40;6.80;;;;;;;;;;5074310;28;20451;-77
2023/06/01 01:25:29;;;;;;;8.27;7.20;;;;;;;;;;5073332;28;20459;-77
2023/06/01 01:28:05;;;;;;;11.83;7.67;;;;;;;;;;5073748;28;20543;-77
2023/06/01 01:30:35;;;;;;;10.10;6.77;;;;;;;;;;5073701;28;20869;-77
2023/06/01 01:33:03;;;;;;;11.20;6.43;;;;;;;;;;5073908;28;20447;-77
2023/06/01 01:35:30;;;;;;;10.10;7.03;;;;;;;;;;5073679;28;20466;-77
2023/06/01 01:37:58;;;;;;;9.80;7.10;;;;;;;;;;5073470;28;20483;-77
2023/06/01 01:40:25;;;;;;;11.17;7.43;;;;;;;;;;5073528;28;20486;-77
2023/06/01 01:42:52;;;;;;;12.10;7.53;;;;;;;;;;5074008;28;20455;-77
2023/06/01 01:45:20;;;;;;;14.63;6.70;;;;;;;;;;5074195;28;20530;-77
2023/06/01 01:47:52;;;;;;;9.37;7.40;;;;;;;;;;5073702;28;20455;-77
2023/06/01 01:50:20;;;;;;;7.60;6.80;;;;;;;;;;5074208;28;20468;-77
2023/06/01 01:52:48;;;;;;;7.93;7.13;;;;;;;;;;5074123;28;20953;-77
2023/06/01 01:55:17;;;;;;;15.30;7.13;;;;;;;;;;5074038;28;20452;-77
2023/06/01 01:57:45;;;;;;;8.20;7.20;;;;;;;;;;5073726;28;20491;-77
2023/06/01 02:00:13;;;;;;;8.90;6.17;;;;;;;;;;5073729;28;20843;-77
2023/06/01 02:02:41;;;;;;;10.70;7.27;;;;;;;;;;5073431;28;20459;-77
2023/06/01 02:05:09;;;;;;;12.47;7.30;;;;;;;;;;5073711;28;20451;-77
2023/06/01 02:07:36;;;;;;;10.90;6.90;;;;;;;;;;5073762;28;20950;-78
2023/06/01 02:10:04;;;;;;;10.10;7.17;;;;;;;;;;5073597;28;20835;-78
2023/06/01 02:12:31;;;;;;;9.20;7.70;;;;;;;;;;5073301;28;20454;-78
2023/06/01 02:14:58;;;;;;;11.13;7.40;;;;;;;;;;5073059;28;20842;-78
2023/06/01 02:17:26;;;;;;;13.30;6.93;;;;;;;;;;5073504;28;20495;-78
2023/06/01 02:19:53;;;;;;;11.20;7.30;;;;;;;;;;5073253;28;20566;-77
2023/06/01 02:22:22;;;;;;;10.80;7.30;;;;;;;;;;5073487;28;20826;-77
2023/06/01 02:24:49;;;;;;;13.37;7.83;;;;;;;;;;5073494;28;20459;-77
2023/06/01 02:27:16;;;;;;;13.07;7.97;;;;;;;;;;5073514;28;20439;-77
2023/06/01 02:29:43;;;;;;;10.70;7.47;;;;;;;;;;5073135;28;20483;-77
2023/06/01 02:32:10;;;;;;;12.83;7.80;;;;;;;;;;5073103;28;20464;-77
2023/06/01 02:34:37;;;;;;;12.47;8.47;;;;;;;;;;5073502;28;20432;-77
2023/06/01 02:37:05;;;;;;;10.50;7.73;;;;;;;;;;5073293;28;20510;-77
2023/06/01 02:39:33;;;;;;;10.73;7.17;;;;;;;;;;5072967;28;20467;-77
2023/06/01 02:42:00;;;;;;;14.27;7.17;;;;;;;;;;5073322;28;20448;-77
2023/06/01 02:44:27;;;;;;;9.70;7.77;;;;;;;;;;5073211;28;20436;-77
2023/06/01 02:46:54;;;;;;;11.80;7.97;;;;;;;;;;5073466;28;20458;-77
2023/06/01 02:49:22;;;;;;;10.27;8.00;;;;;;;;;;5072877;28;20483;-77
2023/06/01 02:51:49;;;;;;;14.47;9.03;;;;;;;;;;5072970;28;20914;-77
2023/06/01 02:54:16;;;;;;;13.27;8.77;;;;;;;;;;5073038;28;20455;-77
2023/06/01 02:56:44;;;;;;;9.37;7.97;;;;;;;;;;5073272;28;20790;-77
2023/06/01 02:59:11;;;;;;;13.60;8.53;;;;;;;;;;5073151;28;20475;-78
2023/06/01 03:01:39;;;;;;;12.40;8.50;;;;;;;;;;5073046;28;20485;-78
2023/06/01 03:04:07;;;;;;;9.90;8.07;;;;;;;;;;5072999;28;20451;-78
2023/06/01 03:06:37;;;;;;;14.30;9.50;;;;;;;;;;5072966;28;20468;-78
2023/06/01 03:09:05;;;;;;;12.60;9.30;;;;;;;;;;5072952;28;20490;-77
2023/06/01 03:11:32;;;;;;;12.50;8.93;;;;;;;;;;5072865;28;20957;-77
2023/06/01 03:14:00;;;;;;;17.57;9.67;;;;;;;;;;5071864;28;20460;-77
2023/06/01 03:16:27;;;;;;;12.43;9.03;;;;;;;;;;5072952;28;20451;-77
2023/06/01 03:18:55;;;;;;;13.77;8.90;;;;;;;;;;5072576;28;20867;-77
2023/06/01 03:21:22;;;;;;;10.77;9.07;;;;;;;;;;5072586;28;20460;-77
2023/06/01 03:23:49;;;;;;;12.60;7.87;;;;;;;;;;5072939;28;20454;-77
2023/06/01 03:26:18;;;;;;;10.73;8.10;;;;;;;;;;5076250;28;20451;-77
2023/06/01 03:28:45;;;;;;;11.50;8.90;;;;;;;;;;5076329;28;20570;-77
2023/06/01 03:31:14;;;;;;;9.90;8.07;;;;;;;;;;5076213;28;20451;-77
2023/06/01 03:33:41;;;;;;;14.83;8.77;;;;;;;;;;5076302;28;20447;-77
2023/06/01 03:36:08;;;;;;;10.00;7.70;;;;;;;;;;5076617;28;20469;-77
2023/06/01 03:38:36;;;;;;;12.67;7.47;;;;;;;;;;5076414;28;20490;-77
2023/06/01 03:41:03;;;;;;;10.30;8.17;;;;;;;;;;5078893;28;20878;-78
2023/06/01 03:43:30;;;;;;;10.80;7.87;;;;;;;;;;5078788;28;20440;-77
2023/06/01 03:45:57;;;;;;;10.13;7.30;;;;;;;;;;5078288;28;20444;-77
2023/06/01 03:48:26;;;;;;;9.23;7.60;;;;;;;;;;5078289;28;20447;-78
2023/06/01 03:50:53;;;;;;;13.27;8.03;;;;;;;;;;5079209;28;20814;-78
2023/06/01 03:53:20;;;;;;;10.90;8.00;;;;;;;;;;5079199;28;21007;-78
2023/06/01 03:55:48;;;;;;;8.50;7.57;;;;;;;;;;5078785;28;20459;-77
2023/06/01 03:58:15;;;;;;;8.73;6.67;;;;;;;;;;5075563;28;20904;-77
2023/06/01 04:00:43;;;;;;;9.27;7.63;;;;;;;;;;5075776;28;20471;-77
2023/06/01 04:03:11;;;;;;;14.80;8.63;;;;;;;;;;5075761;28;20452;-77
2023/06/01 04:05:40;;;;;;;9.80;7.83;;;;;;;;;;5075641;28;20551;-77
2023/06/01 04:08:08;;;;;;;13.03;7.40;;;;;;;;;;5075943;28;20491;-77
2023/06/01 04:10:35;;;;;;;10.33;7.10;;;;;;;;;;5075745;28;20985;-77
2023/06/01 04:13:03;;;;;;;8.37;6.93;;;;;;;;;;5075446;28;20451;-77
2023/06/01 04:15:30;;;;;;;12.70;7.57;;;;;;;;;;5075896;28;20525;-77
2023/06/01 04:17:57;;;;;;;11.87;7.10;;;;;;;;;;5075332;28;20490;-77
2023/06/01 04:20:25;;;;;;;8.23;6.80;;;;;;;;;;5075645;28;20982;-77
2023/06/01 04:22:53;;;;;;;9.77;8.77;;;;;;;;;;5075709;28;20498;-77
2023/06/01 04:25:20;;;;;;;9.80;6.27;;;;;;;;;;5075556;28;20455;-77
2023/06/01 04:27:48;;;;;;;11.13;6.87;;;;;;;;;;5075511;28;20923;-77
2023/06/01 04:30:16;;;;;;;11.07;7.83;;;;;;;;;;5075281;28;20478;-77
2023/06/01 04:32:44;;;;;;;8.20;6.63;;;;;;;;;;5075399;28;20452;-77
2023/06/01 04:35:11;;;;;;;10.33;6.37;;;;;;;;;;5075167;28;20459;-77
2023/06/01 04:37:39;;;;;;;7.47;6.10;;;;;;;;;;5074469;28;20486;-77
2023/06/01 04:40:09;;;;;;;14.13;7.27;;;;;;;;;;5075155;28;20468;-77
2023/06/01 04:42:38;;;;;;;11.70;6.63;;;;;;;;;;5075706;28;20875;-77
2023/06/01 04:45:06;;;;;;;10.20;6.60;;;;;;;;;;5075237;28;20463;-77
2023/06/01 04:47:37;;;;;;;9.13;5.77;;;;;;;;;;5074807;28;20459;-77
2023/06/01 04:50:05;;;;;;;9.30;6.20;;;;;;;;;;5074774;28;20566;-77
2023/06/01 04:52:32;;;;;;;6.50;5.60;;;;;;;;;;5075154;28;20946;-77
2023/06/01 04:54:59;;;;;;;9.10;6.00;;;;;;;;;;5075319;28;20463;-78
2023/06/01 04:57:28;;;;;;;12.47;6.00;;;;;;;;;;5075069;28;20486;-78
2023/06/01 04:59:56;;;;;;;7.90;6.40;;;;;;;;;;5075475;28;20571;-78
2023/06/01 05:02:24;;;;;;;7.33;6.20;;;;;;;;;;5075538;28;20463;-78
2023/06/01 05:04:51;;;;;;;6.00;5.40;;;;;;;;;;5074848;28;20452;-78
2023/06/01 05:07:20;;;;;;;8.43;6.50;;;;;;;;;;5074422;28;20451;-77
2023/06/01 05:09:48;;;;;;;7.30;6.47;;;;;;;;;;5074316;28;20480;-77
2023/06/01 05:12:15;;;;;;;7.60;6.27;;;;;;;;;;5074619;28;20479;-77
2023/06/01 05:14:44;;;;;;;10.60;5.97;;;;;;;;;;5074942;28;20828;-77
2023/06/01 05:17:11;;;;;;;8.70;6.27;;;;;;;;;;5074464;28;20447;-77
2023/06/01 05:19:38;;;;;;;8.77;6.03;;;;;;;;;;5074581;28;20816;-78
2023/06/01 05:22:06;;;;;;;9.70;5.97;;;;;;;;;;5074606;28;20491;-78
2023/06/01 05:24:33;;;;;;;13.27;8.43;;;;;;;;;;5075300;28;20447;-77
2023/06/01 05:27:00;;;;;;;9.33;5.97;;;;;;;;;;5075524;28;20806;-78
2023/06/01 05:29:27;;;;;;;6.60;5.83;;;;;;;;;;5074304;28;20484;-77
2023/06/01 05:31:55;;;;;;;6.07;5.50;;;;;;;;;;5075633;28;20454;-78
2023/06/01 05:34:23;;;;;;;11.07;6.23;;;;;;;;;;5074824;28;20452;-78
2023/06/01 05:36:50;;;;;;;10.60;5.93;;;;;;;;;;5075549;28;20521;-78
2023/06/01 05:39:18;;;;;;;11.83;6.43;;;;;;;;;;5076316;28;20925;-78
2023/06/01 05:41:45;;;;;;;10.07;5.17;;;;;;;;;;5074575;28;20472;-78
2023/06/01 05:44:12;;;;;;;7.40;5.57;;;;;;;;;;5076575;28;20809;-78
2023/06/01 05:46:39;;;;;;;10.23;5.80;;;;;;;;;;5077119;28;20462;-78
2023/06/01 05:49:07;;;;;;;8.30;5.30;;;;;;;;;;5076529;28;20830;-78
2023/06/01 05:51:37;;;;;;;6.97;5.20;;;;;;;;;;5077070;28;20455;-78
2023/06/01 05:54:04;;;;;;;7.00;6.40;;;;;;;;;;5075698;28;20969;-78
2023/06/01 05:56:32;;;;;;;10.10;5.43;;;;;;;;;;5075766;28;20451;-78
2023/06/01 05:58:59;;;;;;;8.17;5.10;;;;;;;;;;5076231;28;20487;-78
2023/06/01 06:01:27;;;;;;;10.80;5.70;;;;;;;;;;5075065;28;20451;-78
2023/06/01 06:03:55;;;;;;;6.80;5.90;;;;;;;;;;5077169;28;20463;-78
2023/06/01 06:06:23;;;;;;;14.77;5.77;;;;;;;;;;5076489;28;20465;-78
2023/06/01 06:08:51;;;;;;;9.30;5.60;;;;;;;;;;5076178;28;20472;-78
2023/06/01 06:11:18;;;;;;;5.83;4.80;;;;;;;;;;5079679;28;20448;-78
2023/06/01 06:13:45;;;;;;;6.57;5.17;;;;;;;;;;5078014;28;20455;-78
2023/06/01 06:16:12;;;;;;;6.57;5.40;;;;;;;;;;5077944;28;20450;-78
2023/06/01 06:18:48;;;;;;;7.10;5.40;;;;;;;;;;5080416;28;20490;-79
2023/06/01 06:21:15;;;;;;;7.40;5.70;;;;;;;;;;5075233;28;20492;-76
2023/06/01 06:23:45;;;;;;;7.23;5.23;;;;;;;;;;5073181;28;20815;-76
2023/06/01 06:26:12;;;;;;;6.00;5.43;;;;;;;;;;5073138;28;20508;-76
2023/06/01 06:28:39;;;;;;;6.33;5.00;;;;;;;;;;5071771;28;20979;-76
2023/06/01 06:31:06;;;;;;;12.40;5.30;;;;;;;;;;5071526;28;20482;-76
2023/06/01 06:33:33;;;;;;;7.77;6.00;;;;;;;;;;5071618;28;20454;-76
2023/06/01 06:36:00;;;;;;;6.53;4.63;;;;;;;;;;5072001;28;20950;-76
2023/06/01 06:38:27;;;;;;;6.60;5.90;;;;;;;;;;5061035;28;20499;-76
2023/06/01 06:40:57;;;;;;;6.80;4.80;;;;;;;;;;5051551;28;20459;-76
2023/06/01 06:43:24;;;;;;;5.30;4.70;;;;;;;;;;5051597;28;20605;-76
2023/06/01 06:45:51;;;;;;;5.70;5.10;;;;;;;;;;5051941;28;20482;-76
2023/06/01 06:48:18;;;;;;;7.90;5.20;;;;;;;;;;5051360;28;20447;-76
2023/06/01 06:50:45;;;;;;;5.80;5.30;;;;;;;;;;5051734;28;20872;-76
2023/06/01 06:53:13;;;;;;;6.23;4.80;;;;;;;;;;5051960;28;20451;-76
2023/06/01 06:55:42;;;;;;;5.97;4.60;;;;;;;;;;5051623;28;20527;-76
2023/06/01 06:58:12;;;;;;;5.13;4.70;;;;;;;;;;5051643;28;20494;-76
2023/06/01 07:00:39;;;;;;;8.53;4.90;;;;;;;;;;5054078;28;20533;-76
2023/06/01 07:03:06;;;;;;;7.70;4.63;;;;;;;;;;5055768;28;20456;-76
2023/06/01 07:05:34;;;;;;;7.80;5.17;;;;;;;;;;5055415;28;20456;-76
2023/06/01 07:08:01;;;;;;;6.53;5.77;;;;;;;;;;5055527;28;20483;-76
2023/06/01 07:10:28;;;;;;;10.13;5.77;;;;;;;;;;5055679;28;20499;-76
2023/06/01 07:12:56;;;;;;;10.50;6.33;;;;;;;;;;5055270;28;20456;-76
2023/06/01 07:15:26;;;;;;;6.00;5.23;;;;;;;;;;5055517;28;20455;-76
2023/06/01 07:17:53;;;;;;;12.73;6.30;;;;;;;;;;5055322;28;20931;-76
2023/06/01 07:20:20;;;;;;;8.30;5.47;;;;;;;;;;5055325;28;20472;-76
2023/06/01 07:22:49;;;;;;;9.13;5.63;;;;;;;;;;5055138;28;20455;-76
2023/06/01 07:25:16;;;;;;;8.60;5.90;;;;;;;;;;5054894;28;20464;-77
2023/06/01 07:27:44;;;;;;;8.00;5.80;;;;;;;;;;5061658;28;20463;-76
2023/06/01 07:30:12;;;;;;;9.20;6.20;;;;;;;;;;5074727;28;21027;-76
2023/06/01 07:32:40;;;;;;;9.33;6.03;;;;;;;;;;5075110;28;20565;-76
2023/06/01 07:35:08;;;;;;;11.30;6.13;;;;;;;;;;5075316;28;20451;-76
2023/06/01 07:37:35;;;;;;;9.03;6.03;;;;;;;;;;5074893;28;20459;-76
2023/06/01 07:40:02;;;;;;;5.83;5.33;;;;;;;;;;5075051;28;20474;-76
2023/06/01 07:42:29;;;;;;;6.70;5.80;;;;;;;;;;5075137;28;20496;-76
2023/06/01 07:44:57;;;;;;;8.23;6.10;;;;;;;;;;5074843;28;20462;-74
2023/06/01 07:47:25;;;;;;;6.97;5.37;;;;;;;;;;5074669;28;20462;-74
2023/06/01 07:49:54;;;;;;;10.23;5.20;;;;;;;;;;5074417;28;20490;-74
2023/06/01 07:52:21;;;;;;;8.00;6.20;;;;;;;;;;5074873;28;20538;-74
2023/06/01 07:54:49;;;;;;;7.73;5.40;;;;;;;;;;5074906;28;20454;-74
2023/06/01 07:57:17;;;;;;;6.47;5.77;;;;;;;;;;5074404;28;20558;-74
2023/06/01 07:59:44;;;;;;;6.10;5.20;;;;;;;;;;5074743;28;20467;-74
2023/06/01 08:02:13;;;;;;;7.40;4.90;;;;;;;;;;5074998;28;20462;-74
2023/06/01 08:04:40;;;;;;;15.13;6.23;;;;;;;;;;5075452;28;20459;-75
2023/06/01 08:07:09;;;;;;;7.50;5.73;;;;;;;;;;5074854;28;20953;-74
2023/06/01 08:09:37;;;;;;;9.63;5.40;;;;;;;;;;5075134;28;21005;-74
2023/06/01 08:12:05;;;;;;;8.20;5.53;;;;;;;;;;5074508;28;20474;-77
2023/06/01 08:14:33;;;;;;;6.43;5.37;;;;;;;;;;5075264;28;20898;-76
2023/06/01 08:17:02;;;;;;;11.30;5.40;;;;;;;;;;5075667;28;20894;-77
2023/06/01 08:19:29;;;;;;;8.57;6.03;;;;;;;;;;5075489;28;20479;-77
2023/06/01 08:21:57;;;;;;;6.77;5.67;;;;;;;;;;5075600;28;20930;-77
2023/06/01 08:24:25;;;;;;;7.17;5.37;;;;;;;;;;5075561;28;20838;-76
2023/06/01 08:26:56;;;;;;;6.50;5.90;;;;;;;;;;5074840;28;20440;-76
2023/06/01 08:29:23;;;;;;;11.70;5.17;;;;;;;;;;5075215;28;20881;-76
2023/06/01 08:31:50;;;;;;;7.67;5.80;;;;;;;;;;5075245;28;20451;-76
2023/06/01 08:34:17;;;;;;;9.00;6.23;;;;;;;;;;5075354;28;20459;-76
2023/06/01 08:36:44;;;;;;;9.60;5.53;;;;;;;;;;5075282;28;20538;-76
2023/06/01 08:39:24;;;;;;;6.70;5.70;;;;;;;;;;5075253;28;20529;-76
2023/06/01 08:41:59;;;;;;;6.70;5.93;;;;;;;;;;5075280;28;20447;-76
2023/06/01 08:44:28;;;;;;;6.13;5.53;;;;;;;;;;5074930;28;20431;-76
2023/06/01 08:46:56;;;;;;;7.23;5.60;;;;;;;;;;5075107;28;20455;-76
2023/06/01 08:49:24;;;;;;;8.93;6.30;;;;;;;;;;5074623;28;20663;-77
2023/06/01 08:51:52;;;;;;;8.53;5.90;;;;;;;;;;5074820;28;20459;-77
2023/06/01 08:54:19;;;;;;;10.50;6.40;;;;;;;;;;5074758;28;20466;-77
2023/06/01 08:56:47;;;;;;;6.37;5.77;;;;;;;;;;5074796;28;20454;-77
2023/06/01 08:59:15;;;;;;;8.50;5.73;;;;;;;;;;5074437;28;20846;-76
2023/06/01 09:01:42;;;;;;;9.60;7.70;;;;;;;;;;5074919;28;20443;-79
2023/06/01 09:04:10;;;;;;;8.60;5.83;;;;;;;;;;5078334;28;20459;-79
2023/06/01 09:06:37;;;;;;;7.97;6.00;;;;;;;;;;5079532;28;20460;-79
2023/06/01 09:09:06;;;;;;;6.73;5.97;;;;;;;;;;5079153;28;20533;-79
2023/06/01 09:11:33;;;;;;;6.70;5.47;;;;;;;;;;5078897;28;20512;-79
2023/06/01 09:14:00;;;;;;;5.37;4.87;;;;;;;;;;5079964;28;20444;-79
2023/06/01 09:16:38;;;;;;;6.33;5.73;;;;;;;;;;5079144;28;20448;-79
2023/06/01 09:19:05;;;;;;;8.50;5.43;;;;;;;;;;5077958;28;20459;-78
2023/06/01 09:21:32;;;;;;;6.17;5.40;;;;;;;;;;5078313;28;20455;-79
2023/06/01 09:24:18;;;;;;;6.30;5.27;;;;;;;;;;5078347;28;20451;-79
2023/06/01 09:26:49;;;;;;;7.63;6.23;;;;;;;;;;5078426;28;20444;-79
2023/06/01 09:29:16;;;;;;;6.50;5.90;;;;;;;;;;5077798;28;20499;-79
2023/06/01 09:31:45;;;;;;;8.83;5.63;;;;;;;;;;5078851;28;20448;-79
2023/06/01 09:34:15;;;;;;;6.13;5.63;;;;;;;;;;5079913;28;20451;-79
2023/06/01 09:36:43;;;;;;;8.10;7.30;;;;;;;;;;5079300;28;20480;-79
2023/06/01 09:39:11;;;;;;;8.23;5.73;;;;;;;;;;5078501;28;20852;-79
2023/06/01 09:41:48;;;;;;;6.70;5.70;;;;;;;;;;5078912;28;20458;-78
2023/06/01 09:44:15;;;;;;;8.80;6.37;;;;;;;;;;5078620;28;20965;-79
2023/06/01 09:46:50;;;;;;;5.87;4.93;;;;;;;;;;5078343;28;20969;-79
2023/06/01 09:49:21;;;;;;;8.00;5.77;;;;;;;;;;5078152;28;20874;-79
2023/06/01 09:51:48;;;;;;;5.90;5.20;;;;;;;;;;5079958;28;20934;-79
2023/06/01 09:54:30;;;;;;;6.10;4.90;;;;;;;;;;5081077;28;20460;-79
2023/06/01 09:56:58;;;;;;;5.90;5.33;;;;;;;;;;5079325;28;20521;-79
2023/06/01 09:59:28;;;;;;;10.20;5.23;;;;;;;;;;5077729;28;20997;-79
2023/06/01 10:01:59;;;;;;;11.33;6.83;;;;;;;;;;5078666;28;20922;-78
2023/06/01 10:04:27;;;;;;;7.90;6.57;;;;;;;;;;5076130;28;20454;-79
2023/06/01 10:06:54;;;;;;;7.80;6.07;;;;;;;;;;5076474;28;20875;-79
2023/06/01 10:09:24;;;;;;;6.80;4.60;;;;;;;;;;5075058;28;20491;-78
2023/06/01 10:11:53;;;;;;;7.47;5.33;;;;;;;;;;5074273;28;20451;-78
2023/06/01 10:14:20;;;;;;;6.20;5.60;;;;;;;;;;5076007;28;20451;-78
2023/06/01 10:16:49;;;;;;;5.37;4.87;;;;;;;;;;5073493;28;20463;-79
2023/06/01 10:19:18;;;;;;;7.70;7.00;;;;;;;;;;5072445;28;20464;-78
2023/06/01 10:21:46;;;;;;;7.20;5.33;;;;;;;;;;5074877;28;20451;-78
2023/06/01 10:24:14;;;;;;;6.30;5.70;;;;;;;;;;5072159;28;20864;-77
2023/06/01 10:26:43;;;;;;;5.70;5.20;;;;;;;;;;5072886;28;20891;-81
2023/06/01 10:29:11;;;;;;;8.70;5.50;;;;;;;;;;5077714;28;20491;-80
2023/06/01 10:31:39;;;;;;;6.53;5.43;;;;;;;;;;5076001;28;20452;-80
2023/06/01 10:34:06;;;;;;;8.80;5.50;;;;;;;;;;5076335;28;20444;-80
2023/06/01 10:36:52;;;;;;;7.70;4.90;;;;;;;;;;5076387;28;20451;-80
2023/06/01 10:39:27;;;;;;;7.57;6.60;;;;;;;;;;5073443;28;20467;-79
2023/06/01 10:41:55;;;;;;;9.73;5.97;;;;;;;;;;5069064;28;20455;-80
2023/06/01 10:44:49;;;;;;;7.60;5.67;;;;;;;;;;5075780;28;20452;-79
2023/06/01 10:47:35;;;;;;;7.57;5.70;;;;;;;;;;5041299;28;20460;-80
2023/06/01 10:50:08;;;;;;;7.20;5.10;;;;;;;;;;5075944;28;20499;-79
2023/06/01 10:52:38;;;;;;;7.40;6.20;;;;;;;;;;5075692;28;20452;-79
2023/06/01 10:58:16;;;;;;;10.70;6.77;;;;;;;;;;5110721;27;20591;-79
2023/06/01 11:00:46;;;;;;;7.60;6.30;;;;;;;;;;5115212;28;20974;-78
2023/06/01 11:03:13;;;;;;;8.27;5.27;;;;;;;;;;5102299;28;20447;-77
2023/06/01 11:05:50;;;;;;;7.10;5.23;;;;;;;;;;5090591;28;20954;-77
2023/06/01 11:08:36;;;;;;;8.10;5.77;;;;;;;;;;5092917;28;20457;-78
2023/06/01 11:11:03;;;;;;;8.83;5.30;;;;;;;;;;5107005;28;20450;-79
2023/06/01 11:13:31;;;;;;;5.10;4.60;;;;;;;;;;5106804;28;20470;-78
2023/06/01 11:16:20;;;;;;;8.20;6.20;;;;;;;;;;5106345;28;20907;-78
2023/06/01 11:18:57;;;;;;;6.30;5.13;;;;;;;;;;5107836;28;20528;-79
2023/06/01 11:21:25;;;;;;;13.47;5.30;;;;;;;;;;5108377;28;20532;-79
2023/06/01 11:23:53;;;;;;;5.97;4.50;;;;;;;;;;5108663;28;20438;-80
2023/06/01 11:26:24;;;;;;;8.60;5.40;;;;;;;;;;5104292;28;20454;-79
2023/06/01 11:28:51;;;;;;;7.33;5.40;;;;;;;;;;5107537;28;20564;-78
2023/06/01 11:31:20;;;;;;;8.80;5.67;;;;;;;;;;5106497;28;20465;-78
2023/06/01 11:33:52;;;;;;;8.83;5.67;;;;;;;;;;5107636;28;20546;-78
2023/06/01 11:36:23;;;;;;;8.90;5.17;;;;;;;;;;5106153;28;20497;-78
2023/06/01 11:38:50;;;;;;;9.23;4.97;;;;;;;;;;5107120;28;20480;-78
2023/06/01 11:41:18;;;;;;;7.03;5.00;;;;;;;;;;5107249;28;20493;-78
2023/06/01 11:43:45;;;;;;;6.43;5.33;;;;;;;;;;5107523;28;20449;-77
2023/06/01 11:46:12;;;;;;;6.20;5.13;;;;;;;;;;5106716;28;20454;-78
2023/06/01 11:48:39;;;;;;;5.77;5.10;;;;;;;;;;5106763;28;20553;-78
2023/06/01 11:51:08;;;;;;;7.10;5.53;;;;;;;;;;5107818;28;20480;-78
2023/06/01 11:53:35;;;;;;;6.10;5.20;;;;;;;;;;5107408;28;20473;-78
2023/06/01 11:56:02;;;;;;;6.03;5.53;;;;;;;;;;5107331;28;20469;-78
2023/06/01 11:58:30;;;;;;;5.50;4.97;;;;;;;;;;5107500;28;20450;-77
2023/06/01 12:00:59;;;;;;;6.03;5.50;;;;;;;;;;5107480;28;20460;-78
2023/06/01 12:03:26;;;;;;;6.50;5.80;;;;;;;;;;5107683;28;20866;-78
2023/06/01 12:05:53;;;;;;;7.53;5.57;;;;;;;;;;5107772;28;21123;-77
2023/06/01 12:08:22;;;;;;;6.50;5.07;;;;;;;;;;5099225;28;20799;-78
2023/06/01 12:10:50;;;;;;;6.97;5.50;;;;;;;;;;5093871;28;20833;-77
2023/06/01 12:13:18;;;;;;;9.03;5.40;;;;;;;;;;5093751;28;20455;-77
2023/06/01 12:15:45;;;;;;;6.47;5.87;;;;;;;;;;5093780;28;20446;-77
2023/06/01 12:18:12;;;;;;;6.67;5.60;;;;;;;;;;5093434;28;20498;-77
2023/06/01 12:20:41;;;;;;;6.30;5.70;;;;;;;;;;5093527;28;20475;-77
2023/06/01 12:23:14;;;;;;;6.43;4.83;;;;;;;;;;5093793;28;20454;-77
2023/06/01 12:25:51;;;;;;;7.50;5.53;;;;;;;;;;5093708;28;20458;-77
2023/06/01 12:28:18;;;;;;;5.80;5.20;;;;;;;;;;5093455;28;20458;-78
2023/06/01 12:30:46;;;;;;;7.80;5.87;;;;;;;;;;5095592;28;20474;-78
2023/06/01 12:33:28;;;;;;;6.20;5.60;;;;;;;;;;5097606;28;20454;-78
2023/06/01 12:35:55;;;;;;;8.87;6.10;;;;;;;;;;5098680;28;20965;-79
2023/06/01 12:38:23;;;;;;;8.20;5.20;;;;;;;;;;5100474;28;20486;-79
2023/06/01 12:41:04;;;;;;;11.13;5.30;;;;;;;;;;5097230;28;20450;-77
2023/06/01 12:43:33;;;;;;;7.80;5.60;;;;;;;;;;5093061;28;20564;-77
2023/06/01 12:46:01;;;;;;;6.20;5.60;;;;;;;;;;5093188;28;20455;-77
2023/06/01 12:48:31;;;;;;;6.47;5.37;;;;;;;;;;5092656;28;21004;-77
2023/06/01 12:50:58;;;;;;;5.83;5.27;;;;;;;;;;5093221;28;20450;-77
2023/06/01 12:53:26;;;;;;;14.50;6.30;;;;;;;;;;5092724;28;20821;-76
2023/06/01 12:55:53;;;;;;;7.53;5.40;;;;;;;;;;5093233;28;20969;-77
2023/06/01 12:58:20;;;;;;;5.73;5.23;;;;;;;;;;5093650;28;20524;-77
2023/06/01 13:00:49;;;;;;;7.03;5.20;;;;;;;;;;5092833;28;20559;-77
2023/06/01 13:03:17;;;;;;;7.20;5.10;;;;;;;;;;5092642;28;20979;-77
2023/06/01 13:05:45;;;;;;;7.77;6.00;;;;;;;;;;5092871;28;20541;-77
2023/06/01 13:08:12;;;;;;;6.23;5.13;;;;;;;;;;5092671;28;20447;-77
2023/06/01 13:10:39;;;;;;;6.70;5.90;;;;;;;;;;5092743;28;20467;-77
2023/06/01 13:13:08;;;;;;;7.10;6.40;;;;;;;;;;5092466;28;20451;-77
2023/06/01 13:15:35;;;;;;;7.43;5.43;;;;;;;;;;5092871;28;20483;-77
2023/06/01 13:18:04;;;;;;;7.77;5.60;;;;;;;;;;5092738;28;20539;-77
2023/06/01 13:20:31;;;;;;;6.37;4.80;;;;;;;;;;5091545;28;20477;-77
2023/06/01 13:22:58;;;;;;;15.33;5.73;;;;;;;;;;5094115;28;20455;-77
2023/06/01 13:25:25;;;;;;;7.07;5.77;;;;;;;;;;5093501;28;20477;-77
2023/06/01 13:27:53;;;;;;;6.73;5.63;;;;;;;;;;5093793;28;20853;-77
2023/06/01 13:30:20;;;;;;;6.20;5.20;;;;;;;;;;5093638;28;20506;-77
2023/06/01 13:32:47;;;;;;;13.17;5.40;;;;;;;;;;5093677;28;20469;-77
2023/06/01 13:35:15;;;;;;;5.93;5.00;;;;;;;;;;5093667;28;20450;-77
2023/06/01 13:37:43;;;;;;;6.60;5.10;;;;;;;;;;5093642;28;20490;-77
2023/06/01 13:40:10;;;;;;;6.00;5.40;;;;;;;;;;5094674;28;20544;-78
2023/06/01 13:42:37;;;;;;;6.13;4.93;;;;;;;;;;5107383;28;20459;-79
2023/06/01 13:45:05;;;;;;;5.77;4.70;;;;;;;;;;5108494;28;20459;-79
2023/06/01 13:47:32;;;;;;;6.80;5.43;;;;;;;;;;5105554;28;20443;-77
2023/06/01 13:49:59;;;;;;;9.00;6.20;;;;;;;;;;5093201;28;20975;-77
2023/06/01 13:52:28;;;;;;;11.13;6.50;;;;;;;;;;5093932;28;20454;-76
2023/06/01 13:54:55;;;;;;;5.07;4.57;;;;;;;;;;5093974;28;20947;-77
2023/06/01 13:57:23;;;;;;;11.13;5.90;;;;;;;;;;5093283;28;20490;-77
2023/06/01 13:59:50;;;;;;;6.27;5.67;;;;;;;;;;5093366;28;20482;-77
2023/06/01 14:02:17;;;;;;;8.87;5.50;;;;;;;;;;5093634;28;20536;-77
2023/06/01 14:04:44;;;;;;;7.47;5.50;;;;;;;;;;5093410;28;20454;-77
2023/06/01 14:07:11;;;;;;;12.83;6.03;;;;;;;;;;5093177;28;20447;-77
2023/06/01 14:09:40;;;;;;;6.70;6.10;;;;;;;;;;5093157;28;20478;-77
2023/06/01 14:12:07;;;;;;;9.93;5.90;;;;;;;;;;5092992;28;20442;-77
2023/06/01 14:14:35;;;;;;;6.83;6.10;;;;;;;;;;5093073;28;20455;-76
2023/06/01 14:17:02;;;;;;;7.97;5.60;;;;;;;;;;5072599;28;20491;-76
2023/06/01 14:19:29;;;;;;;10.07;5.83;;;;;;;;;;5072401;28;20486;-76
2023/06/01 14:21:57;;;;;;;11.70;5.73;;;;;;;;;;5080614;28;20452;-78
2023/06/01 14:24:24;;;;;;;6.83;5.33;;;;;;;;;;5086732;28;20447;-79
2023/06/01 14:26:52;;;;;;;6.20;5.60;;;;;;;;;;5086710;28;20460;-79
2023/06/01 14:29:20;;;;;;;8.83;4.67;;;;;;;;;;5103735;28;20483;-79
2023/06/01 14:31:47;;;;;;;6.90;5.20;;;;;;;;;;5103802;28;20455;-78
2023/06/01 14:34:14;;;;;;;7.77;5.00;;;;;;;;;;5099704;28;20451;-78
2023/06/01 14:36:42;;;;;;;6.43;5.40;;;;;;;;;;5101525;28;20455;-79
2023/06/01 14:39:09;;;;;;;7.23;4.67;;;;;;;;;;5102097;28;20553;-79
2023/06/01 14:41:36;;;;;;;7.10;4.60;;;;;;;;;;5102946;28;20502;-79
2023/06/01 14:44:04;;;;;;;6.30;4.83;;;;;;;;;;5105150;28;20447;-79
2023/06/01 14:46:32;;;;;;;7.90;5.60;;;;;;;;;;5104606;28;20460;-79
2023/06/01 14:49:02;;;;;;;9.20;5.70;;;;;;;;;;5101184;28;20467;-78